createdAt,value
2018-10-21T00:01:05.182Z,83.99
2018-10-21T00:04:10.210Z,83.64
2018-10-21T00:07:15.280Z,83.87
2018-10-21T00:10:21.906Z,84.25
2018-10-21T00:13:26.922Z,82.80
2018-10-21T00:16:32.137Z,83.35
2018-10-21T00:19:37.125Z,83.74
2018-10-21T00:22:42.117Z,82.16
2018-10-21T00:25:47.178Z,83.37
2018-10-21T00:28:52.825Z,83.74
2018-10-21T00:32:00.016Z,83.53
2018-10-21T00:35:06.379Z,84.12
2018-10-21T00:38:11.368Z,83.20
2018-10-21T00:41:16.329Z,83.92
2018-10-21T00:44:21.322Z,83.97
2018-10-21T00:47:26.959Z,84.34
2018-10-21T00:50:32.015Z,83.73
2018-10-21T00:53:37.013Z,83.99
2018-10-21T00:56:43.574Z,84.28
2018-10-21T00:59:48.571Z,83.62
2018-10-21T01:02:53.581Z,84.18
2018-10-21T01:05:58.582Z,84.20
2018-10-21T01:09:10.351Z,84.48
2018-10-21T01:12:15.426Z,84.53
2018-10-21T01:15:20.434Z,84.47
2018-10-21T01:18:25.415Z,83.89
2018-10-21T01:21:30.466Z,84.50
2018-10-21T01:24:35.442Z,83.72
2018-10-21T01:27:41.266Z,84.16
2018-10-21T01:30:46.261Z,84.17
2018-10-21T01:33:51.394Z,84.68
2018-10-21T01:36:56.447Z,83.96
2018-10-21T01:40:40.612Z,83.24
2018-10-21T01:43:45.847Z,83.84
2018-10-21T01:46:50.827Z,84.55
2018-10-21T01:49:55.786Z,83.58
2018-10-21T01:53:01.952Z,84.12
2018-10-21T01:56:06.940Z,83.66
2018-10-21T01:59:11.939Z,83.84
2018-10-21T02:02:16.911Z,84.43
2018-10-21T02:05:22.198Z,84.20
2018-10-21T02:08:27.158Z,83.26
2018-10-21T02:11:32.125Z,83.55
2018-10-21T02:14:37.098Z,84.10
2018-10-21T02:17:42.222Z,83.06
2018-10-21T02:20:47.234Z,84.06
2018-10-21T02:23:52.219Z,84.63
2018-10-21T02:26:57.303Z,85.43
2018-10-21T02:30:02.383Z,84.50
2018-10-21T02:33:07.506Z,84.01
2018-10-21T02:36:12.489Z,83.62
2018-10-21T02:39:17.563Z,82.87
2018-10-21T02:42:22.984Z,83.50
2018-10-21T02:45:27.996Z,84.21
2018-10-21T02:48:32.993Z,83.69
2018-10-21T02:51:38.071Z,84.11
2018-10-21T02:54:43.995Z,83.50
2018-10-21T02:57:48.961Z,83.80
2018-10-21T03:00:54.633Z,84.27
2018-10-21T03:03:59.797Z,82.80
2018-10-21T03:07:04.990Z,84.33
2018-10-21T03:10:09.983Z,84.85
2018-10-21T03:13:14.941Z,83.83
2018-10-21T03:16:19.955Z,83.93
2018-10-21T03:19:28.045Z,83.78
2018-10-21T03:22:34.254Z,83.10
2018-10-21T03:25:39.915Z,83.04
2018-10-21T03:28:53.237Z,83.84
2018-10-21T03:31:58.628Z,84.30
2018-10-21T03:35:06.348Z,84.63
2018-10-21T03:38:11.744Z,84.51
2018-10-21T03:41:18.729Z,83.09
2018-10-21T03:44:24.146Z,83.11
2018-10-21T03:47:29.655Z,84.39
2018-10-21T03:50:38.932Z,83.98
2018-10-21T03:53:43.986Z,83.77
2018-10-21T03:56:48.984Z,83.19
2018-10-21T03:59:53.959Z,84.16
2018-10-21T04:02:58.934Z,83.71
2018-10-21T04:06:05.558Z,83.28
2018-10-21T04:09:13.257Z,83.98
2018-10-21T04:12:18.311Z,84.79
2018-10-21T04:15:23.326Z,84.34
2018-10-21T04:18:28.317Z,83.95
2018-10-21T04:21:33.449Z,84.33
2018-10-21T04:24:38.429Z,84.93
2018-10-21T04:27:43.443Z,83.49
2018-10-21T04:30:48.477Z,84.33
2018-10-21T04:33:53.492Z,83.13
2018-10-21T04:37:10.008Z,84.10
2018-10-21T04:40:19.962Z,83.85
2018-10-21T04:43:24.990Z,84.52
2018-10-21T04:46:30.004Z,83.40
2018-10-21T04:49:34.952Z,84.15
2018-10-21T04:52:39.942Z,83.74
2018-10-21T04:55:44.968Z,84.48
2018-10-21T04:58:49.952Z,83.93
2018-10-21T05:01:54.918Z,84.07
2018-10-21T05:05:00.095Z,82.95
2018-10-21T05:08:06.836Z,84.02
2018-10-21T05:14:58.571Z,84.56
2018-10-21T05:18:03.966Z,84.74
2018-10-21T05:21:08.929Z,85.42
2018-10-21T05:24:14.030Z,84.93
2018-10-21T05:27:18.990Z,85.12
2018-10-21T05:30:23.952Z,84.00
2018-10-21T05:33:28.920Z,83.81
2018-10-21T05:36:33.882Z,84.85
2018-10-21T05:39:38.850Z,84.93
2018-10-21T05:42:44.377Z,84.00
2018-10-21T05:45:49.345Z,84.11
2018-10-21T05:48:54.305Z,84.91
2018-10-21T05:51:59.281Z,84.42
2018-10-21T05:55:04.589Z,83.32
2018-10-21T05:58:09.544Z,83.37
2018-10-21T06:01:14.497Z,83.42
2018-10-21T06:04:19.485Z,84.08
2018-10-21T06:07:24.493Z,83.91
2018-10-21T06:10:29.598Z,84.11
2018-10-21T06:13:34.560Z,84.56
2018-10-21T06:16:49.554Z,85.21
2018-10-21T06:19:58.005Z,84.12
2018-10-21T06:23:03.029Z,85.09
2018-10-21T06:26:08.178Z,83.89
2018-10-21T06:29:13.207Z,85.25
2018-10-21T06:32:18.169Z,84.12
2018-10-21T06:35:23.163Z,84.48
2018-10-21T06:38:28.193Z,84.42
2018-10-21T06:41:35.115Z,84.05
2018-10-21T06:44:40.110Z,82.82
2018-10-21T06:47:45.116Z,83.80
2018-10-21T06:50:50.218Z,82.74
2018-10-21T06:53:55.258Z,84.00
2018-10-21T06:57:00.340Z,83.08
2018-10-21T07:00:06.792Z,83.95
2018-10-21T07:03:11.779Z,83.09
2018-10-21T07:06:18.906Z,82.77
2018-10-21T07:09:23.941Z,83.04
2018-10-21T07:12:28.949Z,83.04
2018-10-21T07:15:34.107Z,82.07
2018-10-21T07:18:41.922Z,83.13
2018-10-21T07:21:46.965Z,83.53
2018-10-21T07:24:53.128Z,81.66
2018-10-21T07:27:58.177Z,81.85
2018-10-21T07:31:03.366Z,81.66
2018-10-21T07:34:09.969Z,82.11
2018-10-21T07:37:15.109Z,80.97
2018-10-21T07:40:20.276Z,81.26
2018-10-21T07:43:25.301Z,80.71
2018-10-21T07:46:30.291Z,80.71
2018-10-21T07:49:35.370Z,81.49
2018-10-21T07:52:40.353Z,81.52
2018-10-21T07:55:45.407Z,80.65
2018-10-21T07:58:50.379Z,81.35
2018-10-21T08:01:55.343Z,81.30
2018-10-21T08:05:00.334Z,81.99
2018-10-21T08:08:16.347Z,82.02
2018-10-21T08:11:21.367Z,82.14
2018-10-21T08:14:26.530Z,81.42
2018-10-21T08:17:31.484Z,80.57
2018-10-21T08:23:48.721Z,81.61
2018-10-21T08:26:55.401Z,81.53
2018-10-21T08:30:00.487Z,79.67
2018-10-21T08:33:06.041Z,78.63
2018-10-21T08:36:11.062Z,79.15
2018-10-21T08:39:16.055Z,77.70
2018-10-21T08:42:21.027Z,78.88
2018-10-21T08:45:26.055Z,76.91
2018-10-21T08:48:31.050Z,76.20
2018-10-21T08:51:36.268Z,75.99
2018-10-21T08:54:41.241Z,73.69
2018-10-21T08:57:46.261Z,74.33
2018-10-21T09:00:51.291Z,72.68
2018-10-21T09:03:56.330Z,72.83
2018-10-21T09:07:01.608Z,72.51
2018-10-21T09:10:07.914Z,73.08
2018-10-21T09:13:13.007Z,71.81
2018-10-21T09:16:18.182Z,71.28
2018-10-21T09:19:23.105Z,71.89
2018-10-21T09:22:28.054Z,70.49
2018-10-21T09:25:33.025Z,69.61
2018-10-21T09:28:38.018Z,69.27
2018-10-21T09:31:42.974Z,69.82
2018-10-21T09:34:54.783Z,67.81
2018-10-21T09:37:59.784Z,67.80
2018-10-21T09:41:04.918Z,66.35
2018-10-21T09:44:11.802Z,65.41
2018-10-21T09:47:16.761Z,63.62
2018-10-21T09:50:21.810Z,64.78
2018-10-21T09:53:26.773Z,64.72
2018-10-21T09:56:31.795Z,63.09
2018-10-21T09:59:43.550Z,62.90
2018-10-21T10:02:54.243Z,62.80
2018-10-21T10:05:59.222Z,62.11
2018-10-21T10:09:07.168Z,61.18
2018-10-21T10:12:18.934Z,62.00
2018-10-21T10:15:24.090Z,62.15
2018-10-21T10:18:29.061Z,61.42
2018-10-21T10:21:34.573Z,61.66
2018-10-21T10:24:39.594Z,58.67
2018-10-21T10:27:44.601Z,58.38
2018-10-21T10:30:49.609Z,58.45
2018-10-21T10:33:54.636Z,55.87
2018-10-21T10:36:59.619Z,56.52
2018-10-21T10:40:06.025Z,55.89
2018-10-21T10:43:11.036Z,55.34
2018-10-21T10:46:16.037Z,54.68
2018-10-21T10:49:20.965Z,55.60
2018-10-21T10:52:26.704Z,55.51
2018-10-21T10:55:37.539Z,53.22
2018-10-21T10:58:42.516Z,54.68
2018-10-21T11:01:47.488Z,53.50
2018-10-21T11:04:54.227Z,52.48
2018-10-21T11:07:59.685Z,52.90
2018-10-21T11:11:04.899Z,52.28
2018-10-21T11:14:11.451Z,51.32
2018-10-21T11:17:16.505Z,51.47
2018-10-21T11:20:23.622Z,51.98
2018-10-21T11:23:30.676Z,50.99
2018-10-21T11:26:35.693Z,49.84
2018-10-21T11:29:40.724Z,50.81
2018-10-21T11:32:45.917Z,49.16
2018-10-21T11:35:51.035Z,51.04
2018-10-21T11:38:56.379Z,49.87
2018-10-21T11:42:01.391Z,49.41
2018-10-21T11:45:06.613Z,47.73
2018-10-21T11:48:11.621Z,48.12
2018-10-21T11:51:16.639Z,48.20
2018-10-21T11:54:21.643Z,47.45
2018-10-21T11:57:26.751Z,44.85
2018-10-21T12:00:31.824Z,44.52
2018-10-21T12:03:36.958Z,43.43
2018-10-21T12:06:42.018Z,42.45
2018-10-21T12:09:48.531Z,44.17
2018-10-21T12:14:57.173Z,44.85
2018-10-21T12:18:02.230Z,44.94
2018-10-21T12:21:07.297Z,42.21
2018-10-21T12:24:12.393Z,43.18
2018-10-21T12:27:17.447Z,41.93
2018-10-21T12:30:22.468Z,42.85
2018-10-21T12:33:27.619Z,39.95
2018-10-21T12:36:32.654Z,39.69
2018-10-21T12:39:38.064Z,40.18
2018-10-21T12:42:43.132Z,41.22
2018-10-21T12:45:48.430Z,40.73
2018-10-21T12:48:55.793Z,40.48
2018-10-21T12:52:00.803Z,41.32
2018-10-21T12:55:07.044Z,41.33
2018-10-21T12:58:12.152Z,40.27
2018-10-21T13:01:17.170Z,40.44
2018-10-21T13:04:22.941Z,41.84
2018-10-21T13:07:27.992Z,40.42
2018-10-21T13:10:33.031Z,39.76
2018-10-21T13:13:38.107Z,40.49
2018-10-21T13:16:43.136Z,41.79
2018-10-21T13:19:48.242Z,41.80
2018-10-21T13:22:53.264Z,40.26
2018-10-21T13:25:58.260Z,42.14
2018-10-21T13:29:03.315Z,42.00
2018-10-21T13:32:08.362Z,43.23
2018-10-21T13:35:13.378Z,41.50
2018-10-21T13:38:18.442Z,41.13
2018-10-21T13:41:26.773Z,41.73
2018-10-21T13:44:31.788Z,42.06
2018-10-21T13:47:36.796Z,42.14
2018-10-21T13:50:43.443Z,42.86
2018-10-21T13:53:48.430Z,42.70
2018-10-21T13:57:06.721Z,42.32
2018-10-21T14:00:11.913Z,42.37
2018-10-21T14:03:16.967Z,42.59
2018-10-21T14:06:21.999Z,42.69
2018-10-21T14:09:27.017Z,43.20
2018-10-21T14:12:32.130Z,43.26
2018-10-21T14:15:37.132Z,42.65
2018-10-21T14:18:42.320Z,42.71
2018-10-21T14:21:47.267Z,41.47
2018-10-21T14:24:52.306Z,42.20
2018-10-21T14:27:57.459Z,43.15
2018-10-21T14:31:02.974Z,43.76
2018-10-21T14:34:07.828Z,43.63
2018-10-21T14:37:13.161Z,44.73
2018-10-21T14:40:18.153Z,45.12
2018-10-21T14:43:23.155Z,44.58
2018-10-21T14:46:28.142Z,45.41
2018-10-21T14:49:33.874Z,45.86
2018-10-21T14:52:40.617Z,46.15
2018-10-21T14:55:47.609Z,45.62
2018-10-21T14:59:11.391Z,45.22
2018-10-21T15:02:16.539Z,45.68
2018-10-21T15:05:21.446Z,46.34
2018-10-21T15:08:26.490Z,46.81
2018-10-21T15:11:31.498Z,47.75
2018-10-21T15:14:36.600Z,46.04
2018-10-21T15:17:43.148Z,45.89
2018-10-21T15:20:48.173Z,47.41
2018-10-21T15:23:53.177Z,47.06
2018-10-21T15:26:58.466Z,47.96
2018-10-21T15:30:04.303Z,48.51
2018-10-21T15:33:09.222Z,49.66
2018-10-21T15:36:14.469Z,49.49
2018-10-21T15:39:19.780Z,51.18
2018-10-21T15:42:24.964Z,50.20
2018-10-21T15:45:29.952Z,50.50
2018-10-21T15:48:35.456Z,53.03
2018-10-21T15:51:40.529Z,52.83
2018-10-21T15:54:45.884Z,54.99
2018-10-21T15:57:50.969Z,55.66
2018-10-21T16:00:55.957Z,55.85
2018-10-21T16:04:01.057Z,57.96
2018-10-21T16:07:06.220Z,57.60
2018-10-21T16:10:11.289Z,58.45
2018-10-21T16:13:16.262Z,59.41
2018-10-21T16:16:21.342Z,60.61
2018-10-21T16:19:26.219Z,61.01
2018-10-21T16:22:31.189Z,62.11
2018-10-21T16:25:36.329Z,61.59
2018-10-21T16:28:41.254Z,62.04
2018-10-21T16:31:46.290Z,63.53
2018-10-21T16:34:51.223Z,64.24
2018-10-21T16:41:29.362Z,65.45
2018-10-21T16:44:34.533Z,66.40
2018-10-21T16:47:39.984Z,66.46
2018-10-21T16:50:45.025Z,65.95
2018-10-21T16:53:49.947Z,66.90
2018-10-21T16:56:54.941Z,66.40
2018-10-21T16:59:59.925Z,66.78
2018-10-21T17:03:05.338Z,68.37
2018-10-21T17:06:10.265Z,68.52
2018-10-21T17:09:15.256Z,68.07
2018-10-21T17:12:20.490Z,69.01
2018-10-21T17:15:25.608Z,68.94
2018-10-21T17:18:30.595Z,69.05
2018-10-21T17:21:35.570Z,68.88
2018-10-21T17:24:40.630Z,70.60
2018-10-21T17:27:45.622Z,70.74
2018-10-21T17:30:50.597Z,70.40
2018-10-21T17:33:55.578Z,71.22
2018-10-21T17:37:00.616Z,70.31
2018-10-21T17:40:06.777Z,71.39
2018-10-21T17:43:11.917Z,71.21
2018-10-21T17:46:16.902Z,71.62
2018-10-21T17:49:21.855Z,72.29
2018-10-21T17:52:26.935Z,72.52
2018-10-21T17:55:32.008Z,72.95
2018-10-21T17:58:37.077Z,72.59
2018-10-21T18:01:56.166Z,72.92
2018-10-21T18:05:01.648Z,73.10
2018-10-21T18:08:06.761Z,72.99
2018-10-21T18:11:11.815Z,73.95
2018-10-21T18:14:16.881Z,74.59
2018-10-21T18:17:22.245Z,73.89
2018-10-21T18:20:27.234Z,74.05
2018-10-21T18:23:32.299Z,74.56
2018-10-21T18:26:37.570Z,75.64
2018-10-21T18:29:42.558Z,75.61
2018-10-21T18:32:47.671Z,75.64
2018-10-21T18:35:52.714Z,75.17
2018-10-21T18:38:57.805Z,74.97
2018-10-21T18:42:03.045Z,76.27
2018-10-21T18:45:10.018Z,76.33
2018-10-21T18:48:15.108Z,76.38
2018-10-21T18:51:20.428Z,77.29
2018-10-21T18:54:25.471Z,76.33
2018-10-21T18:57:30.753Z,76.83
2018-10-21T19:00:35.781Z,76.31
2018-10-21T19:03:41.607Z,77.57
2018-10-21T19:06:46.850Z,76.94
2018-10-21T19:09:51.860Z,76.66
2018-10-21T19:13:00.054Z,76.67
2018-10-21T19:16:02.244Z,78.44
2018-10-21T19:19:07.311Z,78.15
2018-10-21T19:22:12.460Z,78.72
2018-10-21T19:25:17.600Z,78.04
2018-10-21T19:28:22.578Z,77.84
2018-10-21T19:31:27.626Z,77.63
2018-10-21T19:34:33.042Z,77.75
2018-10-21T19:37:39.072Z,78.08
2018-10-21T19:40:44.718Z,78.67
2018-10-21T19:43:49.967Z,77.75
2018-10-21T19:46:54.980Z,79.23
2018-10-21T19:50:00.082Z,78.88
2018-10-21T19:53:05.200Z,79.57
2018-10-21T19:56:10.200Z,79.65
2018-10-21T19:59:15.477Z,80.35
2018-10-21T20:02:20.544Z,79.36
2018-10-21T20:05:25.438Z,78.98
2018-10-21T20:08:30.441Z,79.86
2018-10-21T20:11:35.762Z,79.39
2018-10-21T20:14:40.926Z,79.48
2018-10-21T20:17:45.930Z,80.60
2018-10-21T20:20:50.936Z,79.60
2018-10-21T20:23:55.935Z,79.80
2018-10-21T20:27:00.926Z,79.92
2018-10-21T20:30:07.442Z,80.06
2018-10-21T20:33:12.465Z,79.72
2018-10-21T20:36:17.410Z,79.44
2018-10-21T20:39:22.406Z,79.78
2018-10-21T20:42:34.134Z,80.79
2018-10-21T20:45:39.142Z,79.84
2018-10-21T20:48:44.149Z,80.91
2018-10-21T20:51:49.203Z,80.37
2018-10-21T20:54:54.281Z,80.00
2018-10-21T20:57:59.458Z,79.93
2018-10-21T21:01:04.881Z,80.11
2018-10-21T21:04:10.079Z,80.28
2018-10-21T21:07:15.131Z,81.10
2018-10-21T21:10:20.209Z,79.74
2018-10-21T21:14:57.259Z,80.92
2018-10-21T21:18:02.654Z,80.82
2018-10-21T21:21:07.635Z,82.36
2018-10-21T21:24:12.713Z,81.24
2018-10-21T21:27:17.666Z,81.64
2018-10-21T21:30:22.671Z,81.37
2018-10-21T21:33:27.651Z,80.91
2018-10-21T21:36:34.417Z,80.89
2018-10-21T21:39:42.697Z,81.60
2018-10-21T21:42:47.677Z,81.12
2018-10-21T21:45:52.652Z,80.27
2018-10-21T21:48:57.648Z,80.52
2018-10-21T21:52:02.639Z,81.74
2018-10-21T21:55:07.679Z,80.66
2018-10-21T21:58:12.797Z,80.58
2018-10-21T22:01:25.393Z,80.92
2018-10-21T22:04:30.409Z,80.57
2018-10-21T22:07:36.008Z,80.02
2018-10-21T22:10:41.046Z,80.29
2018-10-21T22:13:46.065Z,80.54
2018-10-21T22:16:51.075Z,80.46
2018-10-21T22:19:56.121Z,82.02
2018-10-21T22:23:01.489Z,80.80
2018-10-21T22:26:06.554Z,81.36
2018-10-21T22:29:11.550Z,80.88
2018-10-21T22:32:16.571Z,81.05
2018-10-21T22:35:21.592Z,81.95
2018-10-21T22:38:37.739Z,82.43
2018-10-21T22:41:42.738Z,81.69
2018-10-21T22:44:47.705Z,81.57
2018-10-21T22:47:52.718Z,83.00
2018-10-21T22:50:57.733Z,81.90
2018-10-21T22:54:03.637Z,82.64
2018-10-21T22:57:14.231Z,82.85
2018-10-21T23:00:19.338Z,82.21
2018-10-21T23:03:24.354Z,82.34
2018-10-21T23:06:29.370Z,81.81
2018-10-21T23:09:34.369Z,81.57
2018-10-21T23:12:41.215Z,81.20
2018-10-21T23:15:46.233Z,82.13
2018-10-21T23:18:58.390Z,81.63
2018-10-21T23:22:04.336Z,82.30
2018-10-21T23:25:09.663Z,82.85
2018-10-21T23:28:15.114Z,81.53
2018-10-21T23:31:21.194Z,82.50
2018-10-21T23:34:26.761Z,81.65
2018-10-21T23:37:31.755Z,81.90
2018-10-21T23:40:36.741Z,81.72
2018-10-21T23:43:41.714Z,81.76
2018-10-21T23:46:55.571Z,82.96
2018-10-21T23:50:00.558Z,82.59
2018-10-21T23:53:05.542Z,81.92
2018-10-21T23:56:18.473Z,82.44
2018-10-21T23:59:23.463Z,82.82
